createdAt,value
2022-08-09T00:00:04.272Z,77.00
2022-08-09T00:02:36.733Z,76.20
2022-08-09T00:06:18.064Z,76.90
2022-08-09T00:07:56.862Z,77.10
2022-08-09T00:10:28.274Z,77.00
2022-08-09T00:12:55.086Z,77.40
2022-08-09T00:15:35.566Z,77.40
2022-08-09T00:18:11.319Z,77.10
2022-08-09T00:20:50.179Z,77.40
2022-08-09T00:23:55.117Z,77.50
2022-08-09T00:26:05.691Z,77.20
2022-08-09T00:28:34.787Z,77.50
2022-08-09T00:31:30.675Z,77.50
2022-08-09T00:33:53.460Z,77.90
2022-08-09T00:36:20.819Z,77.80
2022-08-09T00:38:50.872Z,78.00
2022-08-09T00:44:07.968Z,77.90
2022-08-09T00:44:25.746Z,78.40
2022-08-09T00:47:04.775Z,78.10
2022-08-09T00:49:32.806Z,78.50
2022-08-09T00:52:02.062Z,78.50
2022-08-09T00:54:36.391Z,78.50
2022-08-09T00:57:10.480Z,78.80
2022-08-09T00:59:41.366Z,78.50
2022-08-09T01:02:20.724Z,78.70
2022-08-09T01:04:53.189Z,79.40
2022-08-09T01:07:37.662Z,78.50
2022-08-09T01:10:05.589Z,78.90
2022-08-09T01:12:55.534Z,79.40
2022-08-09T01:15:25.886Z,79.20
2022-08-09T01:17:57.867Z,79.20
2022-08-09T01:20:24.859Z,79.60
2022-08-09T01:24:00.723Z,79.10
2022-08-09T01:26:02.205Z,79.30
2022-08-09T01:28:30.560Z,79.70
2022-08-09T01:30:59.026Z,79.80
2022-08-09T01:33:27.894Z,80.00
2022-08-09T01:36:01.310Z,80.40
2022-08-09T01:38:29.930Z,80.40
2022-08-09T01:41:09.193Z,81.00
2022-08-09T01:43:50.925Z,80.60
2022-08-09T01:46:27.713Z,80.40
2022-08-09T01:48:56.814Z,80.70
2022-08-09T01:51:26.193Z,80.40
2022-08-09T01:53:54.642Z,80.60
2022-08-09T01:56:26.308Z,80.90
2022-08-09T01:58:53.678Z,80.80
2022-08-09T02:01:21.488Z,80.80
2022-08-09T02:04:09.668Z,81.10
2022-08-09T02:06:58.620Z,81.60
2022-08-09T02:09:26.468Z,81.80
2022-08-09T02:12:10.753Z,81.40
2022-08-09T02:14:41.755Z,81.10
2022-08-09T02:17:29.634Z,81.60
2022-08-09T02:19:56.397Z,82.00
2022-08-09T02:22:36.873Z,81.80
2022-08-09T02:25:06.682Z,82.20
2022-08-09T02:27:58.245Z,82.50
2022-08-09T02:30:21.525Z,82.10
2022-08-09T02:32:53.105Z,82.70
2022-08-09T02:36:01.271Z,83.10
2022-08-09T02:38:12.243Z,83.10
2022-08-09T02:41:08.298Z,83.10
2022-08-09T02:43:42.597Z,83.40
2022-08-09T02:46:22.907Z,84.10
2022-08-09T02:48:51.534Z,84.30
2022-08-09T02:51:18.688Z,84.10
2022-08-09T02:53:53.130Z,83.90
2022-08-09T02:56:27.998Z,84.20
2022-08-09T02:58:55.677Z,84.30
2022-08-09T03:01:29.518Z,84.80
2022-08-09T03:04:18.204Z,85.10
2022-08-09T03:06:48.968Z,84.10
2022-08-09T03:09:17.704Z,85.50
2022-08-09T03:12:06.053Z,86.30
2022-08-09T03:14:32.011Z,85.90
2022-08-09T03:17:02.172Z,86.10
2022-08-09T03:19:52.631Z,85.80
2022-08-09T03:22:41.971Z,85.50
2022-08-09T03:25:25.690Z,86.30
2022-08-09T03:27:55.566Z,86.50
2022-08-09T03:30:29.719Z,86.20
2022-08-09T03:33:01.822Z,86.10
2022-08-09T03:36:11.426Z,87.10
2022-08-09T03:38:30.438Z,86.90
2022-08-09T03:40:58.062Z,87.50
2022-08-09T03:43:25.229Z,88.50
2022-08-09T03:46:04.649Z,87.90
2022-08-09T03:48:51.299Z,88.20
2022-08-09T03:51:55.247Z,88.70
2022-08-09T03:54:10.885Z,89.20
2022-08-09T03:56:41.267Z,89.10
2022-08-09T03:59:13.668Z,89.00
2022-08-09T04:01:48.601Z,88.90
2022-08-09T04:04:16.321Z,89.00
2022-08-09T04:06:44.119Z,89.60
2022-08-09T04:09:44.444Z,89.70
2022-08-09T04:12:08.871Z,89.90
2022-08-09T04:15:01.095Z,89.50
2022-08-09T04:17:25.805Z,90.10
2022-08-09T04:19:56.443Z,90.00
2022-08-09T04:22:23.429Z,90.20
2022-08-09T04:24:50.654Z,90.30
2022-08-09T04:27:22.066Z,90.10
2022-08-09T04:29:50.118Z,90.20
2022-08-09T04:32:31.456Z,90.10
2022-08-09T04:35:01.059Z,90.40
2022-08-09T04:37:45.770Z,90.30
2022-08-09T04:40:28.849Z,90.30
2022-08-09T04:43:00.698Z,90.20
2022-08-09T04:45:30.713Z,90.20
2022-08-09T04:48:03.097Z,90.50
2022-08-09T04:50:35.036Z,90.50
2022-08-09T04:53:13.033Z,90.50
2022-08-09T04:55:57.378Z,90.40
2022-08-09T04:58:26.831Z,90.70
2022-08-09T05:00:54.516Z,90.70
2022-08-09T05:03:43.235Z,90.80
2022-08-09T05:06:08.737Z,91.00
2022-08-09T05:08:35.493Z,90.70
2022-08-09T05:11:03.104Z,90.90
2022-08-09T05:13:33.195Z,90.60
2022-08-09T05:16:00.798Z,90.80
2022-08-09T05:18:57.223Z,91.10
2022-08-09T05:21:23.073Z,91.10
2022-08-09T05:23:58.565Z,91.40
2022-08-09T05:26:37.191Z,91.50
2022-08-09T05:29:22.092Z,91.70
2022-08-09T05:31:56.222Z,91.90
2022-08-09T05:34:23.286Z,92.00
2022-08-09T05:36:57.479Z,92.30
2022-08-09T05:39:28.972Z,92.10
2022-08-09T05:42:01.707Z,92.30
2022-08-09T05:44:32.673Z,92.40
2022-08-09T05:47:00.030Z,91.90
2022-08-09T05:50:23.641Z,91.50
2022-08-09T05:52:13.601Z,91.30
2022-08-09T05:54:42.120Z,90.90
2022-08-09T05:57:12.808Z,90.40
2022-08-09T05:59:44.071Z,90.50
2022-08-09T06:02:11.931Z,90.50
2022-08-09T06:04:44.513Z,90.70
2022-08-09T06:07:21.396Z,91.00
2022-08-09T06:10:02.142Z,91.20
2022-08-09T06:12:30.420Z,91.30
2022-08-09T06:15:00.986Z,91.10
2022-08-09T06:17:40.389Z,91.30
2022-08-09T06:20:07.997Z,91.30
2022-08-09T06:22:35.143Z,91.10
2022-08-09T06:25:02.117Z,90.60
2022-08-09T06:27:42.569Z,89.90
2022-08-09T06:30:16.022Z,90.40
2022-08-09T06:32:59.606Z,90.00
2022-08-09T06:35:35.892Z,88.60
2022-08-09T06:38:20.131Z,87.60
2022-08-09T06:40:58.692Z,88.00
2022-08-09T06:43:27.036Z,88.00
2022-08-09T06:46:07.410Z,86.90
2022-08-09T06:48:42.627Z,85.30
2022-08-09T06:51:10.240Z,85.30
2022-08-09T06:53:38.517Z,84.40
2022-08-09T06:56:06.405Z,84.50
2022-08-09T07:00:52.455Z,83.90
2022-08-09T07:01:23.964Z,82.70
2022-08-09T07:03:52.377Z,82.20
2022-08-09T07:06:20.090Z,82.70
2022-08-09T07:08:49.594Z,81.80
2022-08-09T07:11:23.549Z,80.40
2022-08-09T07:14:05.208Z,79.70
2022-08-09T07:16:42.870Z,80.30
2022-08-09T07:19:23.253Z,79.60
2022-08-09T07:21:57.223Z,79.90
2022-08-09T07:24:32.390Z,78.40
2022-08-09T07:27:24.030Z,77.60
2022-08-09T07:29:53.921Z,78.10
2022-08-09T07:32:24.163Z,77.30
2022-08-09T07:34:59.463Z,77.30
2022-08-09T07:37:26.264Z,77.50
2022-08-09T07:39:53.895Z,76.70
2022-08-09T07:42:32.375Z,76.60
2022-08-09T07:45:02.487Z,76.30
2022-08-09T07:47:39.418Z,75.60
2022-08-09T07:50:16.412Z,75.00
2022-08-09T07:52:43.816Z,74.50
2022-08-09T07:55:14.462Z,74.90
2022-08-09T07:57:47.102Z,74.40
2022-08-09T08:00:20.463Z,74.20
2022-08-09T08:03:04.869Z,74.10
2022-08-09T08:05:54.232Z,74.00
2022-08-09T08:09:02.690Z,73.70
2022-08-09T08:12:09.046Z,73.00
2022-08-09T08:13:56.790Z,73.80
2022-08-09T08:16:29.659Z,71.80
2022-08-09T08:18:57.831Z,71.50
2022-08-09T08:21:25.014Z,71.20
2022-08-09T08:23:56.009Z,71.20
2022-08-09T08:26:26.415Z,70.40
2022-08-09T08:29:08.953Z,69.50
2022-08-09T08:32:02.579Z,68.50
2022-08-09T08:34:25.497Z,68.40
2022-08-09T08:36:52.533Z,68.30
2022-08-09T08:39:19.321Z,68.60
2022-08-09T08:41:51.984Z,67.40
2022-08-09T08:44:23.176Z,66.20
2022-08-09T08:47:02.795Z,66.00
2022-08-09T08:49:38.471Z,65.60
2022-08-09T08:52:24.378Z,65.00
2022-08-09T08:55:03.748Z,65.10
2022-08-09T08:57:35.073Z,64.80
2022-08-09T09:00:12.734Z,64.90
2022-08-09T09:02:49.981Z,64.60
2022-08-09T09:05:58.251Z,64.80
2022-08-09T09:08:29.796Z,64.40
2022-08-09T09:11:02.905Z,64.50
2022-08-09T09:13:34.599Z,63.90
2022-08-09T09:16:09.028Z,64.40
2022-08-09T09:18:36.521Z,62.70
2022-08-09T09:21:06.331Z,61.80
2022-08-09T09:23:48.967Z,63.20
2022-08-09T09:26:26.137Z,62.00
2022-08-09T09:29:04.208Z,62.30
2022-08-09T09:32:06.691Z,62.20
2022-08-09T09:34:24.837Z,62.50
2022-08-09T09:36:56.204Z,62.30
2022-08-09T09:39:25.691Z,62.80
2022-08-09T09:42:21.750Z,61.40
2022-08-09T09:44:54.891Z,61.10
2022-08-09T09:47:22.944Z,60.70
2022-08-09T09:50:13.312Z,59.80
2022-08-09T09:52:56.229Z,60.20
2022-08-09T09:55:27.987Z,59.80
2022-08-09T09:58:02.313Z,59.40
2022-08-09T10:00:32.049Z,58.70
2022-08-09T10:03:00.409Z,59.10
2022-08-09T10:06:03.508Z,58.70
2022-08-09T10:08:27.993Z,58.20
2022-08-09T10:10:55.649Z,58.50
2022-08-09T10:13:24.673Z,57.90
2022-08-09T10:16:56.685Z,57.90
2022-08-09T10:18:59.934Z,57.70
2022-08-09T10:21:27.141Z,57.40
2022-08-09T10:23:55.580Z,57.90
2022-08-09T10:26:24.686Z,57.60
2022-08-09T10:29:37.174Z,57.20
2022-08-09T10:34:33.209Z,57.30
2022-08-09T10:37:01.216Z,57.50
2022-08-09T10:39:28.925Z,57.20
2022-08-09T10:41:56.134Z,57.10
2022-08-09T10:44:24.927Z,56.90
2022-08-09T10:47:00.915Z,57.50
2022-08-09T10:49:51.738Z,56.20
2022-08-09T10:52:42.961Z,56.80
2022-08-09T10:55:22.722Z,57.00
2022-08-09T10:57:52.013Z,56.10
2022-08-09T11:00:32.423Z,56.10
2022-08-09T11:03:11.986Z,56.40
2022-08-09T11:06:05.056Z,56.60
2022-08-09T11:08:43.798Z,56.20
2022-08-09T11:11:15.013Z,56.60
2022-08-09T11:13:49.854Z,56.70
2022-08-09T11:16:34.915Z,56.60
2022-08-09T11:19:08.060Z,55.70
2022-08-09T11:21:57.115Z,55.90
2022-08-09T11:24:51.291Z,55.50
2022-08-09T11:28:02.393Z,55.70
2022-08-09T11:30:33.342Z,55.40
2022-08-09T11:33:10.553Z,55.40
2022-08-09T11:35:49.246Z,54.60
2022-08-09T11:38:22.186Z,55.00
2022-08-09T11:40:56.019Z,54.70
2022-08-09T11:43:25.674Z,55.30
2022-08-09T11:46:03.119Z,55.10
2022-08-09T11:48:32.979Z,54.70
2022-08-09T11:52:48.813Z,55.00
2022-08-09T11:54:28.060Z,55.30
2022-08-09T11:57:18.540Z,55.30
2022-08-09T11:59:55.321Z,55.60
2022-08-09T12:02:37.100Z,55.20
2022-08-09T12:05:06.590Z,55.10
2022-08-09T12:07:44.108Z,54.90
2022-08-09T12:10:14.102Z,54.80
2022-08-09T12:14:06.611Z,54.30
2022-08-09T12:15:50.491Z,54.40
2022-08-09T12:18:29.577Z,52.90
2022-08-09T12:20:57.343Z,53.00
2022-08-09T12:23:56.434Z,53.00
2022-08-09T12:26:13.308Z,53.30
2022-08-09T12:29:12.149Z,52.70
2022-08-09T12:31:58.875Z,53.30
2022-08-09T12:34:43.402Z,52.90
2022-08-09T12:37:30.148Z,52.40
2022-08-09T12:40:07.054Z,52.50
2022-08-09T12:42:35.883Z,52.80
2022-08-09T12:45:11.919Z,52.40
2022-08-09T12:47:51.495Z,51.80
2022-08-09T12:50:19.733Z,52.30
2022-08-09T12:53:02.592Z,52.60
2022-08-09T12:56:11.802Z,52.60
2022-08-09T12:58:24.060Z,51.90
2022-08-09T13:00:54.356Z,51.40
2022-08-09T13:03:58.338Z,51.50
2022-08-09T13:06:34.069Z,51.80
2022-08-09T13:09:38.305Z,51.20
2022-08-09T13:12:08.421Z,51.00
2022-08-09T13:14:41.897Z,51.20
2022-08-09T13:17:44.123Z,51.40
2022-08-09T13:20:12.514Z,52.40
2022-08-09T13:23:05.385Z,51.30
2022-08-09T13:25:42.322Z,52.10
2022-08-09T13:28:10.899Z,51.40
2022-08-09T13:32:14.295Z,51.20
2022-08-09T13:33:53.802Z,51.10
2022-08-09T13:36:38.170Z,51.20
2022-08-09T13:41:56.659Z,50.90
2022-08-09T13:42:10.898Z,49.90
2022-08-09T13:44:41.925Z,49.90
2022-08-09T13:47:29.587Z,49.90
2022-08-09T13:50:01.317Z,49.80
2022-08-09T13:52:29.206Z,49.80
2022-08-09T13:54:59.119Z,50.50
2022-08-09T13:57:37.297Z,49.60
2022-08-09T14:00:15.432Z,49.80
2022-08-09T14:03:04.112Z,49.20
2022-08-09T14:06:00.375Z,49.50
2022-08-09T14:08:18.526Z,49.20
2022-08-09T14:10:51.961Z,49.70
2022-08-09T14:13:21.944Z,48.90
2022-08-09T14:16:10.938Z,48.90
2022-08-09T14:18:39.088Z,48.80
2022-08-09T14:21:17.475Z,48.90
2022-08-09T14:23:54.919Z,48.10
2022-08-09T14:26:32.795Z,48.50
2022-08-09T14:29:01.330Z,48.00
2022-08-09T14:31:36.071Z,48.30
2022-08-09T14:34:17.709Z,48.40
2022-08-09T14:36:54.887Z,47.50
2022-08-09T14:39:21.743Z,47.60
2022-08-09T14:42:08.364Z,48.20
2022-08-09T14:44:48.837Z,47.80
2022-08-09T14:47:42.929Z,47.40
2022-08-09T14:50:08.575Z,47.70
2022-08-09T14:52:37.731Z,47.90
2022-08-09T14:55:06.842Z,47.30
2022-08-09T14:57:43.675Z,48.10
2022-08-09T15:00:11.131Z,46.90
2022-08-09T15:02:38.678Z,47.30
2022-08-09T15:05:07.425Z,47.00
2022-08-09T15:07:35.115Z,47.40
2022-08-09T15:10:10.905Z,47.50
2022-08-09T15:12:40.842Z,47.10
2022-08-09T15:15:12.985Z,46.90
2022-08-09T15:17:42.101Z,46.70
2022-08-09T15:21:53.425Z,47.10
2022-08-09T15:23:55.841Z,47.20
2022-08-09T15:25:46.734Z,47.50
2022-08-09T15:28:26.319Z,47.50
2022-08-09T15:31:09.833Z,47.30
2022-08-09T15:34:18.163Z,48.00
2022-08-09T15:36:29.402Z,48.10
2022-08-09T15:39:00.620Z,48.30
2022-08-09T15:41:31.520Z,48.70
2022-08-09T15:43:59.978Z,49.10
2022-08-09T15:46:32.183Z,49.70
2022-08-09T15:49:21.920Z,50.30
2022-08-09T15:52:04.580Z,50.10
2022-08-09T15:54:48.933Z,50.90
2022-08-09T15:57:35.502Z,51.30
2022-08-09T16:00:14.801Z,51.50
2022-08-09T16:02:53.760Z,51.50
2022-08-09T16:05:22.209Z,51.60
2022-08-09T16:07:49.508Z,51.50
2022-08-09T16:10:54.942Z,51.60
2022-08-09T16:13:04.901Z,51.80
2022-08-09T16:16:06.152Z,51.90
2022-08-09T16:18:34.924Z,52.10
2022-08-09T16:21:02.010Z,52.40
2022-08-09T16:23:29.101Z,52.50
2022-08-09T16:26:02.494Z,52.30
2022-08-09T16:28:29.600Z,52.40
2022-08-09T16:30:59.372Z,52.20
2022-08-09T16:33:26.853Z,52.60
2022-08-09T16:35:57.189Z,52.40
2022-08-09T16:38:25.333Z,52.40
2022-08-09T16:40:52.121Z,52.50
2022-08-09T16:43:18.878Z,52.30
2022-08-09T16:45:48.029Z,52.80
2022-08-09T16:48:38.012Z,52.70
2022-08-09T16:51:07.545Z,52.40
2022-08-09T16:53:35.990Z,52.80
2022-08-09T16:56:09.366Z,52.90
2022-08-09T16:58:39.515Z,52.80
2022-08-09T17:01:07.388Z,52.90
2022-08-09T17:03:34.461Z,53.00
2022-08-09T17:06:03.450Z,53.20
2022-08-09T17:08:46.287Z,53.10
2022-08-09T17:11:41.104Z,53.20
2022-08-09T17:14:25.642Z,53.00
2022-08-09T17:17:01.213Z,53.10
2022-08-09T17:20:05.979Z,53.60
2022-08-09T17:22:23.984Z,53.30
2022-08-09T17:24:55.859Z,53.00
2022-08-09T17:27:31.368Z,53.00
2022-08-09T17:29:58.045Z,53.10
2022-08-09T17:32:37.374Z,53.20
2022-08-09T17:35:11.052Z,53.10
2022-08-09T17:38:14.243Z,53.30
2022-08-09T17:40:27.098Z,53.10
2022-08-09T17:42:59.608Z,53.30
2022-08-09T17:45:37.544Z,53.30
2022-08-09T17:48:17.141Z,53.20
2022-08-09T17:50:56.004Z,53.00
2022-08-09T17:53:23.333Z,53.10
2022-08-09T17:55:55.316Z,53.20
2022-08-09T17:58:26.982Z,53.50
2022-08-09T18:00:56.735Z,53.20
2022-08-09T18:03:25.700Z,53.30
2022-08-09T18:05:57.130Z,53.40
2022-08-09T18:08:27.636Z,53.40
2022-08-09T18:11:01.716Z,53.90
2022-08-09T18:13:43.118Z,53.30
2022-08-09T18:16:28.805Z,54.30
2022-08-09T18:18:56.457Z,53.90
2022-08-09T18:21:24.390Z,54.30
2022-08-09T18:24:09.975Z,55.00
2022-08-09T18:26:38.684Z,55.00
2022-08-09T18:30:39.571Z,55.00
2022-08-09T18:32:03.098Z,54.90
2022-08-09T18:34:31.606Z,55.00
2022-08-09T18:36:58.575Z,55.30
2022-08-09T18:39:25.729Z,55.50
2022-08-09T18:42:01.065Z,56.20
2022-08-09T18:44:27.941Z,56.60
2022-08-09T18:47:07.725Z,55.80
2022-08-09T18:49:43.734Z,56.10
2022-08-09T18:52:16.135Z,56.60
2022-08-09T18:54:52.209Z,56.30
2022-08-09T18:57:22.384Z,56.30
2022-08-09T18:59:54.505Z,55.90
2022-08-09T19:02:24.012Z,56.50
2022-08-09T19:05:04.145Z,57.30
2022-08-09T19:08:04.210Z,57.00
2022-08-09T19:10:37.475Z,57.20
2022-08-09T19:13:21.953Z,57.00
2022-08-09T19:15:56.422Z,56.70
2022-08-09T19:18:33.925Z,58.10
2022-08-09T19:21:05.522Z,57.90
2022-08-09T19:24:36.357Z,57.50
2022-08-09T19:26:31.242Z,57.40
2022-08-09T19:29:01.870Z,57.90
2022-08-09T19:31:30.489Z,57.50
2022-08-09T19:33:58.002Z,57.70
2022-08-09T19:36:30.980Z,57.80
2022-08-09T19:39:03.583Z,58.10
2022-08-09T19:41:35.315Z,58.10
2022-08-09T19:44:03.462Z,59.20
2022-08-09T19:46:34.157Z,58.40
2022-08-09T19:50:08.424Z,58.80
2022-08-09T19:51:55.685Z,59.80
2022-08-09T19:54:26.597Z,59.20
2022-08-09T19:56:54.204Z,59.50
2022-08-09T19:59:57.162Z,59.50
2022-08-09T20:03:24.154Z,60.10
2022-08-09T20:04:59.121Z,60.80
2022-08-09T20:07:56.904Z,60.40
2022-08-09T20:10:17.813Z,60.90
2022-08-09T20:12:49.126Z,61.00
2022-08-09T20:16:34.770Z,61.80
2022-08-09T20:18:07.431Z,61.40
2022-08-09T20:20:37.881Z,61.80
2022-08-09T20:23:07.645Z,61.80
2022-08-09T20:25:38.213Z,61.90
2022-08-09T20:28:27.505Z,62.40
2022-08-09T20:31:00.945Z,63.00
2022-08-09T20:33:29.633Z,63.00
2022-08-09T20:36:08.371Z,63.40
2022-08-09T20:39:02.690Z,63.70
2022-08-09T20:41:34.974Z,63.60
2022-08-09T20:44:06.888Z,63.50
2022-08-09T20:46:43.176Z,63.20
2022-08-09T20:49:12.391Z,63.20
2022-08-09T20:51:41.133Z,64.20
2022-08-09T20:54:12.727Z,64.10
2022-08-09T20:56:43.972Z,63.70
2022-08-09T20:59:16.806Z,64.30
2022-08-09T21:01:50.327Z,63.50
2022-08-09T21:05:52.670Z,64.10
2022-08-09T21:07:11.596Z,64.20
2022-08-09T21:09:45.123Z,64.00
2022-08-09T21:14:48.286Z,64.40
2022-08-09T21:18:23.417Z,64.30
2022-08-09T21:20:18.639Z,64.40
2022-08-09T21:22:53.979Z,65.00
2022-08-09T21:25:44.234Z,65.00
2022-08-09T21:28:34.950Z,65.00
2022-08-09T21:31:16.355Z,65.10
2022-08-09T21:33:46.223Z,65.90
2022-08-09T21:36:18.109Z,65.60
2022-08-09T21:38:45.610Z,65.40
2022-08-09T21:41:17.808Z,65.90
2022-08-09T21:43:56.863Z,66.00
2022-08-09T21:46:25.095Z,66.80
2022-08-09T21:48:52.531Z,66.10
2022-08-09T21:51:24.485Z,66.30
2022-08-09T21:54:02.772Z,66.20
2022-08-09T21:56:42.871Z,66.90
2022-08-09T21:59:16.158Z,67.40
2022-08-09T22:01:59.374Z,67.30
2022-08-09T22:04:37.560Z,67.70
2022-08-09T22:07:14.354Z,67.90
2022-08-09T22:10:01.035Z,67.90
2022-08-09T22:12:35.086Z,67.80
2022-08-09T22:15:05.974Z,67.80
2022-08-09T22:17:35.858Z,67.60
2022-08-09T22:20:17.027Z,67.60
2022-08-09T22:22:49.032Z,67.90
2022-08-09T22:26:05.664Z,67.80
2022-08-09T22:28:07.257Z,68.00
2022-08-09T22:30:34.194Z,67.70
2022-08-09T22:33:01.638Z,67.80
2022-08-09T22:36:02.083Z,68.20
2022-08-09T22:38:17.753Z,68.50
2022-08-09T22:40:49.279Z,69.00
2022-08-09T22:43:26.465Z,68.50
2022-08-09T22:48:10.966Z,68.70
2022-08-09T22:48:59.949Z,68.90
2022-08-09T22:51:34.244Z,69.60
2022-08-09T22:54:05.465Z,69.40
2022-08-09T22:56:37.790Z,69.60
2022-08-09T22:59:57.131Z,69.20
2022-08-09T23:01:55.445Z,69.40
2022-08-09T23:04:22.265Z,69.60
2022-08-09T23:07:13.854Z,69.70
2022-08-09T23:09:40.909Z,69.70
2022-08-09T23:12:07.768Z,70.30
2022-08-09T23:14:41.513Z,70.00
2022-08-09T23:17:09.714Z,70.40
2022-08-09T23:20:06.825Z,70.60
2022-08-09T23:22:23.287Z,71.00
2022-08-09T23:24:50.063Z,70.70
2022-08-09T23:27:16.739Z,70.60
2022-08-09T23:29:43.515Z,71.10
2022-08-09T23:32:10.229Z,71.20
2022-08-09T23:34:37.638Z,71.40
2022-08-09T23:37:04.737Z,71.80
2022-08-09T23:39:31.500Z,71.30
2022-08-09T23:41:58.395Z,71.50
2022-08-09T23:44:25.088Z,71.90
2022-08-09T23:46:57.382Z,71.50
2022-08-09T23:49:25.238Z,72.40
2022-08-09T23:51:52.273Z,72.30
2022-08-09T23:54:19.826Z,71.80
2022-08-09T23:56:54.043Z,72.20
2022-08-09T23:59:22.200Z,72.80
